Buckskin, Indiana
Current Conditions -  °F | °C
As of 12:17 PM on Monday 22 Dec 2014 (Local Time) from KEVV Reporting Station
Light Rain Light Rain  
Wind Chill: 51°   Ceiling: 2000
Heat Index: 51°   Visibility: 10mi
Dew Point: 44°   Wind: 12mph
Humidity: 77%   Direction: 150°SSE
Pressure: 29.78"   Gusts: NA
Location:  38.23°N, 87.41°W
Report Text: KEVV 221817Z 15010KT 10SM -RA BKN020 BKN029 OVC075 11/07 A2978 RMK AO2 RAB08 P0000 T01060067
Loading
Personal Weather Stations






























Interactive Weather Map New forecast layout! Learn more

10-Day Weather Forecast

Advertisements
Track Severe Weather on mobile